createdAt,value
2018-12-31T00:04:14.359Z,86.19
2018-12-31T00:09:20.559Z,86.49
2018-12-31T00:14:26.735Z,86.31
2018-12-31T00:19:33.272Z,86.51
2018-12-31T00:24:39.455Z,86.58
2018-12-31T00:29:45.759Z,87.28
2018-12-31T00:34:52.038Z,87.02
2018-12-31T00:39:58.243Z,87.02
2018-12-31T00:45:04.692Z,86.76
2018-12-31T00:50:11.088Z,87.16
2018-12-31T00:55:17.436Z,87.41
2018-12-31T01:00:23.490Z,87.37
2018-12-31T01:05:29.562Z,87.42
2018-12-31T01:10:35.689Z,87.35
2018-12-31T01:15:41.808Z,87.15
2018-12-31T01:20:47.999Z,87.18
2018-12-31T01:25:54.054Z,86.37
2018-12-31T01:31:00.315Z,86.13
2018-12-31T01:36:06.472Z,84.96
2018-12-31T01:41:12.643Z,85.41
2018-12-31T01:46:19.006Z,85.10
2018-12-31T01:51:25.379Z,84.86
2018-12-31T01:56:31.495Z,85.15
2018-12-31T02:01:38.304Z,85.13
2018-12-31T02:06:44.507Z,85.65
2018-12-31T02:11:53.638Z,85.88
2018-12-31T02:16:59.819Z,85.93
2018-12-31T02:22:05.962Z,86.72
2018-12-31T02:27:12.054Z,86.75
2018-12-31T02:32:18.152Z,86.77
2018-12-31T02:37:24.282Z,86.75
2018-12-31T02:42:30.344Z,87.11
2018-12-31T02:47:36.656Z,87.14
2018-12-31T02:52:43.004Z,87.58
2018-12-31T02:57:49.252Z,86.98
2018-12-31T03:02:55.304Z,86.39
2018-12-31T03:08:01.539Z,86.38
2018-12-31T03:13:11.037Z,85.88
2018-12-31T03:18:17.267Z,85.49
2018-12-31T03:23:23.313Z,85.48
2018-12-31T03:28:29.481Z,85.34
2018-12-31T03:33:35.684Z,85.60
2018-12-31T03:38:41.851Z,85.64
2018-12-31T03:43:47.988Z,85.79
2018-12-31T03:48:54.259Z,85.66
2018-12-31T03:54:00.359Z,85.70
2018-12-31T03:59:06.819Z,85.86
2018-12-31T04:04:12.867Z,85.44
2018-12-31T04:09:18.900Z,85.90
2018-12-31T04:14:25.246Z,86.42
2018-12-31T04:19:31.411Z,86.36
2018-12-31T04:24:37.765Z,87.22
2018-12-31T04:29:44.148Z,87.95
2018-12-31T04:34:50.906Z,88.44
2018-12-31T04:39:57.235Z,89.36
2018-12-31T04:45:03.567Z,89.70
2018-12-31T04:50:09.869Z,90.60
2018-12-31T04:55:16.398Z,90.89
2018-12-31T05:00:22.489Z,91.10
2018-12-31T05:05:28.974Z,91.15
2018-12-31T05:10:35.212Z,91.11
2018-12-31T05:15:41.491Z,91.25
2018-12-31T05:20:47.624Z,91.37
2018-12-31T05:25:53.767Z,91.64
2018-12-31T05:31:00.146Z,91.22
2018-12-31T05:36:06.300Z,91.64
2018-12-31T05:41:12.366Z,91.40
2018-12-31T05:46:18.870Z,91.10
2018-12-31T05:51:25.390Z,91.29
2018-12-31T05:56:31.455Z,91.29
2018-12-31T06:01:38.267Z,91.48
2018-12-31T06:06:44.308Z,91.61
2018-12-31T06:11:50.579Z,91.78
2018-12-31T06:16:56.697Z,91.78
2018-12-31T06:22:03.209Z,91.94
2018-12-31T06:27:09.410Z,92.20
2018-12-31T06:32:15.363Z,92.26
2018-12-31T06:37:21.577Z,92.22
2018-12-31T06:42:27.756Z,92.30
2018-12-31T06:47:34.219Z,92.32
2018-12-31T06:52:40.512Z,92.45
2018-12-31T06:57:46.623Z,92.53
2018-12-31T07:02:52.719Z,92.65
2018-12-31T07:07:59.488Z,92.61
2018-12-31T07:13:06.237Z,92.66
2018-12-31T07:18:13.163Z,92.79
2018-12-31T07:23:19.392Z,92.53
2018-12-31T07:28:25.597Z,92.38
2018-12-31T07:33:32.742Z,92.53
2018-12-31T07:38:38.906Z,92.55
2018-12-31T07:43:45.211Z,92.50
2018-12-31T07:48:52.019Z,92.41
2018-12-31T07:53:58.271Z,92.64
2018-12-31T07:59:04.751Z,92.70
2018-12-31T08:04:10.873Z,92.82
2018-12-31T08:09:17.015Z,92.83
2018-12-31T08:14:23.236Z,92.37
2018-12-31T08:19:29.720Z,92.37
2018-12-31T08:24:36.391Z,92.31
2018-12-31T08:29:43.451Z,92.80
2018-12-31T08:34:49.794Z,92.83
2018-12-31T08:39:57.051Z,92.95
2018-12-31T08:45:04.038Z,92.64
2018-12-31T08:50:10.575Z,92.35
2018-12-31T08:55:17.146Z,91.92
2018-12-31T09:00:26.549Z,91.64
2018-12-31T09:05:33.094Z,91.69
2018-12-31T09:10:39.406Z,91.58
2018-12-31T09:15:45.855Z,91.83
2018-12-31T09:20:52.190Z,91.39
2018-12-31T09:25:58.499Z,91.30
2018-12-31T09:31:04.810Z,91.14
2018-12-31T09:36:11.243Z,90.93
2018-12-31T09:41:18.391Z,90.50
2018-12-31T09:46:24.890Z,89.74
2018-12-31T09:51:31.277Z,88.99
2018-12-31T09:56:37.880Z,88.99
2018-12-31T10:01:44.162Z,88.36
2018-12-31T10:06:52.332Z,88.14
2018-12-31T10:11:58.637Z,88.56
2018-12-31T10:17:04.977Z,88.38
2018-12-31T10:22:11.349Z,88.38
2018-12-31T10:27:17.632Z,88.82
2018-12-31T10:32:27.081Z,88.82
2018-12-31T10:37:33.245Z,88.55
2018-12-31T10:42:39.453Z,87.56
2018-12-31T10:47:46.759Z,86.42
2018-12-31T10:52:52.968Z,86.46
2018-12-31T10:57:59.418Z,87.22
2018-12-31T11:03:05.502Z,86.45
2018-12-31T11:08:11.905Z,86.45
2018-12-31T11:13:19.558Z,86.23
2018-12-31T11:18:25.956Z,85.94
2018-12-31T11:23:32.364Z,86.49
2018-12-31T11:28:38.658Z,86.63
2018-12-31T11:33:46.428Z,86.43
2018-12-31T11:38:53.012Z,86.43
2018-12-31T11:43:59.442Z,86.64
2018-12-31T11:49:05.840Z,86.64
2018-12-31T11:54:12.276Z,87.49
2018-12-31T11:59:19.799Z,87.49
2018-12-31T12:04:26.178Z,86.87
2018-12-31T12:09:32.510Z,86.63
2018-12-31T12:14:38.701Z,86.63
2018-12-31T12:19:47.165Z,87.43
2018-12-31T12:24:57.232Z,87.93
2018-12-31T12:30:09.832Z,87.92
2018-12-31T12:35:18.664Z,87.60
2018-12-31T12:40:25.020Z,87.88
2018-12-31T12:45:31.732Z,87.38
2018-12-31T12:50:38.338Z,86.89
2018-12-31T12:55:49.925Z,87.31
2018-12-31T13:00:56.851Z,87.44
2018-12-31T13:06:03.226Z,87.16
2018-12-31T13:11:11.290Z,87.42
2018-12-31T13:16:18.245Z,87.04
2018-12-31T13:21:27.461Z,87.20
2018-12-31T13:26:34.431Z,86.37
2018-12-31T13:31:43.146Z,86.34
2018-12-31T13:36:50.044Z,85.81
2018-12-31T13:41:57.239Z,86.50
2018-12-31T13:47:03.839Z,86.02
2018-12-31T13:52:11.574Z,85.33
2018-12-31T13:57:18.595Z,85.62
2018-12-31T14:02:25.706Z,86.67
2018-12-31T14:07:32.469Z,86.38
2018-12-31T14:12:45.046Z,86.79
2018-12-31T14:17:52.176Z,87.11
2018-12-31T14:22:58.831Z,87.29
2018-12-31T14:28:06.102Z,88.07
2018-12-31T14:33:16.533Z,87.93
2018-12-31T14:38:23.344Z,88.29
2018-12-31T14:43:29.949Z,87.76
2018-12-31T14:48:36.197Z,88.66
2018-12-31T14:53:44.996Z,89.03
2018-12-31T14:58:54.079Z,89.25
2018-12-31T15:04:00.660Z,89.89
2018-12-31T15:09:10.642Z,90.56
2018-12-31T15:14:18.299Z,90.76
2018-12-31T15:19:25.428Z,90.99
2018-12-31T15:24:33.553Z,91.40
2018-12-31T15:29:41.897Z,91.33
2018-12-31T15:34:48.282Z,91.40
2018-12-31T15:39:57.443Z,91.56
2018-12-31T15:45:03.012Z,91.39
2018-12-31T15:50:10.921Z,91.52
2018-12-31T15:55:22.881Z,91.68
2018-12-31T16:00:30.047Z,92.11
2018-12-31T16:05:37.152Z,92.05
2018-12-31T16:10:43.645Z,91.77
2018-12-31T16:15:55.450Z,91.91
2018-12-31T16:21:02.505Z,91.98
2018-12-31T16:26:09.406Z,92.10
2018-12-31T16:31:17.048Z,92.16
2018-12-31T16:36:24.328Z,92.16
2018-12-31T16:41:30.896Z,92.34
2018-12-31T16:46:38.490Z,92.21
2018-12-31T16:51:45.895Z,92.34
2018-12-31T16:56:53.312Z,92.40
2018-12-31T17:02:00.753Z,92.64
2018-12-31T17:07:08.382Z,92.49
2018-12-31T17:12:14.897Z,92.35
2018-12-31T17:17:23.892Z,92.58
2018-12-31T17:22:31.464Z,92.72
2018-12-31T17:27:38.323Z,92.78
2018-12-31T17:32:47.305Z,92.62
2018-12-31T17:37:54.074Z,92.57
2018-12-31T17:43:00.942Z,92.32
2018-12-31T17:48:11.496Z,92.19
2018-12-31T17:53:20.090Z,92.29
2018-12-31T17:58:27.345Z,91.78
2018-12-31T18:03:35.407Z,92.11
2018-12-31T18:08:42.053Z,91.98
2018-12-31T18:13:49.255Z,91.61
2018-12-31T18:18:55.955Z,91.51
2018-12-31T18:24:02.590Z,91.97
2018-12-31T18:29:09.230Z,91.94
2018-12-31T18:34:15.656Z,91.96
2018-12-31T18:39:22.334Z,91.85
2018-12-31T18:44:28.725Z,91.26
2018-12-31T18:49:35.043Z,91.59
2018-12-31T18:54:41.357Z,91.71
2018-12-31T18:59:47.630Z,91.52
2018-12-31T19:04:54.110Z,91.79
2018-12-31T19:10:00.881Z,91.72
2018-12-31T19:15:08.416Z,91.52
2018-12-31T19:20:15.053Z,91.08
2018-12-31T19:25:24.669Z,90.91
2018-12-31T19:30:30.930Z,90.63
2018-12-31T19:35:37.291Z,90.77
2018-12-31T19:40:43.553Z,90.84
2018-12-31T19:45:49.859Z,90.97
2018-12-31T19:50:56.437Z,90.96
2018-12-31T19:56:03.529Z,90.72
2018-12-31T20:01:10.030Z,90.68
2018-12-31T20:06:19.500Z,90.53
2018-12-31T20:11:25.765Z,90.14
2018-12-31T20:16:32.898Z,90.18
2018-12-31T20:21:39.383Z,90.00
2018-12-31T20:26:45.505Z,90.38
2018-12-31T20:31:52.487Z,89.85
2018-12-31T20:36:58.813Z,89.27
2018-12-31T20:42:05.248Z,89.59
2018-12-31T20:47:11.408Z,89.91
2018-12-31T20:52:17.965Z,89.61
2018-12-31T20:57:24.560Z,89.22
2018-12-31T21:02:30.990Z,89.36
2018-12-31T21:07:37.606Z,89.27
2018-12-31T21:12:44.601Z,89.45
2018-12-31T21:17:58.042Z,89.40
2018-12-31T21:23:06.570Z,89.29
2018-12-31T21:28:13.273Z,89.31
2018-12-31T21:33:19.518Z,88.42
2018-12-31T21:38:25.750Z,88.69
2018-12-31T21:43:31.949Z,89.21
2018-12-31T21:48:38.163Z,89.65
2018-12-31T21:53:44.477Z,89.99
2018-12-31T21:58:51.914Z,90.20
2018-12-31T22:03:58.305Z,89.73
2018-12-31T22:09:07.059Z,89.71
2018-12-31T22:14:13.498Z,89.30
2018-12-31T22:19:19.768Z,89.77
2018-12-31T22:24:26.117Z,89.51
2018-12-31T22:29:33.985Z,89.65
2018-12-31T22:34:42.597Z,89.80
2018-12-31T22:39:48.878Z,89.42
2018-12-31T22:44:55.613Z,89.74
2018-12-31T22:50:02.242Z,89.85
2018-12-31T22:55:09.354Z,89.83
2018-12-31T23:00:15.709Z,90.04
2018-12-31T23:05:21.834Z,89.94
2018-12-31T23:10:28.032Z,90.08
2018-12-31T23:15:36.378Z,90.24
2018-12-31T23:20:42.854Z,90.07
2018-12-31T23:25:49.299Z,90.32
2018-12-31T23:30:55.567Z,90.31
2018-12-31T23:36:02.094Z,90.59
2018-12-31T23:41:08.233Z,90.33
2018-12-31T23:46:14.887Z,90.28
2018-12-31T23:51:21.111Z,90.63
2018-12-31T23:56:27.905Z,91.07
